Time;durP1;ratioP1;P1;durP2;ratioP2;P2;SDS_P1;SDS_P2;PMS_P1;PMS_P2;Temp;Humidity;BMP_temperature;BMP_pressure;BME280_temperature;BME280_humidity;BME280_pressure;Samples;Min_cycle;Max_cycle;Signal;HPM_P1;HPM_P2
2023/04/26 00:01:31;;;;;;;5.90;1.90;;;4.90;99.90;;;;;;5054610;28;20044;-63
2023/04/26 00:03:57;;;;;;;7.63;2.25;;;4.90;99.90;;;;;;5053912;28;20048;-63
2023/04/26 00:06:22;;;;;;;9.05;2.67;;;4.70;99.90;;;;;;5052408;28;20122;-63
2023/04/26 00:08:48;;;;;;;7.63;2.30;;;4.70;99.90;;;;;;5053548;28;20061;-63
2023/04/26 00:11:13;;;;;;;8.02;2.35;;;4.60;99.90;;;;;;5054122;28;20049;-63
2023/04/26 00:13:39;;;;;;;7.63;2.80;;;4.50;99.90;;;;;;5052916;28;20057;-63
2023/04/26 00:16:05;;;;;;;9.02;2.22;;;4.40;99.90;;;;;;5054485;28;20124;-63
2023/04/26 00:18:31;;;;;;;6.80;2.20;;;4.40;99.90;;;;;;5052349;28;20389;-63
2023/04/26 00:20:57;;;;;;;6.97;2.25;;;4.30;99.90;;;;;;5054622;28;20497;-62
2023/04/26 00:23:23;;;;;;;8.13;2.28;;;4.30;99.90;;;;;;5053186;28;20037;-63
2023/04/26 00:25:48;;;;;;;10.50;3.78;;;4.30;99.90;;;;;;5052499;28;20557;-63
2023/04/26 00:28:14;;;;;;;6.47;2.65;;;4.30;99.90;;;;;;5069981;28;20539;-63
2023/04/26 00:30:46;;;;;;;6.28;2.78;;;4.30;99.90;;;;;;5054208;28;20048;-63
2023/04/26 00:33:26;;;;;;;8.48;2.33;;;4.30;99.90;;;;;;5052196;28;20053;-63
2023/04/26 00:35:51;;;;;;;12.90;3.10;;;4.20;99.90;;;;;;5054428;28;20047;-63
2023/04/26 00:38:17;;;;;;;8.52;2.92;;;4.20;99.90;;;;;;5053143;28;20090;-63
2023/04/26 00:40:43;;;;;;;9.57;2.63;;;4.20;99.90;;;;;;5052227;28;20050;-63
2023/04/26 00:43:10;;;;;;;15.27;3.47;;;4.20;99.90;;;;;;5052763;28;20051;-63
2023/04/26 00:45:36;;;;;;;7.82;3.05;;;4.20;99.90;;;;;;5053442;28;20071;-62
2023/04/26 00:48:02;;;;;;;10.98;2.75;;;4.30;99.90;;;;;;5052066;28;20482;-63
2023/04/26 00:50:30;;;;;;;8.20;2.40;;;4.30;99.90;;;;;;5053822;28;20049;-63
2023/04/26 00:52:57;;;;;;;8.70;3.05;;;4.30;99.90;;;;;;5036594;28;20099;-63
2023/04/26 00:55:25;;;;;;;6.63;2.25;;;4.30;99.90;;;;;;5052497;28;20041;-63
2023/04/26 00:57:51;;;;;;;10.30;2.00;;;4.40;99.90;;;;;;5052651;28;20045;-62
2023/04/26 01:00:17;;;;;;;6.68;2.13;;;4.40;99.90;;;;;;5052575;28;20047;-63
2023/04/26 01:02:43;;;;;;;6.78;2.28;;;4.50;99.90;;;;;;5051841;28;20040;-62
2023/04/26 01:05:09;;;;;;;6.03;2.08;;;4.50;99.90;;;;;;5052648;28;20033;-63
2023/04/26 01:07:37;;;;;;;6.25;2.05;;;4.50;99.90;;;;;;5051472;28;20040;-63
2023/04/26 01:10:08;;;;;;;7.70;2.08;;;4.50;99.90;;;;;;5052334;28;20497;-63
2023/04/26 01:12:35;;;;;;;11.30;2.30;;;4.60;99.90;;;;;;5053057;28;20048;-63
2023/04/26 01:15:02;;;;;;;7.45;2.13;;;4.60;99.90;;;;;;5052756;28;20045;-62
2023/04/26 01:17:28;;;;;;;6.43;2.08;;;4.60;99.90;;;;;;5051739;28;20128;-63
2023/04/26 01:19:54;;;;;;;7.50;2.58;;;4.70;99.90;;;;;;5052433;28;20073;-63
2023/04/26 01:22:20;;;;;;;7.93;2.10;;;4.70;99.90;;;;;;5034278;28;20077;-63
2023/04/26 01:24:50;;;;;;;7.45;1.88;;;4.70;99.90;;;;;;5052029;28;20156;-62
2023/04/26 01:27:16;;;;;;;6.68;2.13;;;4.80;99.90;;;;;;5031920;28;20128;-63
2023/04/26 01:29:42;;;;;;;5.18;1.70;;;4.80;99.90;;;;;;5031175;28;20037;-63
2023/04/26 01:32:08;;;;;;;6.15;1.80;;;4.80;99.90;;;;;;5033611;28;20040;-64
2023/04/26 01:34:33;;;;;;;7.75;1.88;;;4.80;99.90;;;;;;5031468;28;20045;-63
2023/04/26 01:37:00;;;;;;;4.95;1.50;;;4.90;99.90;;;;;;5049240;28;20041;-63
2023/04/26 01:39:26;;;;;;;6.15;1.90;;;4.80;99.90;;;;;;5052592;28;20037;-63
2023/04/26 01:41:52;;;;;;;4.45;1.50;;;4.80;99.90;;;;;;5052067;28;20045;-63
2023/04/26 01:44:18;;;;;;;8.57;1.98;;;4.80;99.90;;;;;;5067320;28;20478;-63
2023/04/26 01:46:44;;;;;;;4.93;1.80;;;4.80;99.90;;;;;;5033816;28;20105;-63
2023/04/26 01:49:10;;;;;;;6.75;2.00;;;4.80;99.90;;;;;;5052936;28;20141;-63
2023/04/26 01:51:35;;;;;;;7.28;1.65;;;4.80;99.90;;;;;;5051827;28;20041;-63
2023/04/26 01:54:01;;;;;;;5.72;1.75;;;4.80;99.90;;;;;;5052900;28;20037;-63
2023/04/26 01:56:27;;;;;;;8.00;2.22;;;4.80;99.90;;;;;;5050754;28;20474;-63
2023/04/26 01:58:55;;;;;;;6.43;2.33;;;4.80;99.90;;;;;;5050465;28;20120;-63
2023/04/26 02:01:21;;;;;;;5.95;1.70;;;4.80;99.90;;;;;;5050836;28;20127;-63
2023/04/26 02:03:48;;;;;;;5.85;1.80;;;4.80;99.90;;;;;;5050839;28;20076;-63
2023/04/26 02:06:13;;;;;;;5.88;1.98;;;4.80;99.90;;;;;;5051305;28;20049;-63
2023/04/26 02:08:39;;;;;;;5.15;1.70;;;4.70;99.90;;;;;;5050826;28;20051;-63
2023/04/26 02:11:05;;;;;;;10.50;3.50;;;4.70;99.90;;;;;;5067217;28;20485;-63
2023/04/26 02:13:31;;;;;;;6.03;2.10;;;4.60;99.90;;;;;;5050631;28;20045;-63
2023/04/26 02:15:58;;;;;;;8.70;2.63;;;4.60;99.90;;;;;;5051412;28;20033;-63
2023/04/26 02:18:24;;;;;;;6.00;2.25;;;4.60;99.90;;;;;;5050093;28;20045;-63
2023/04/26 02:20:49;;;;;;;9.90;2.08;;;4.60;99.90;;;;;;5052603;28;20036;-63
2023/04/26 02:23:15;;;;;;;7.53;2.00;;;4.50;99.90;;;;;;5067683;28;20482;-63
2023/04/26 02:25:45;;;;;;;5.70;1.95;;;4.60;99.90;;;;;;5049367;28;20041;-63
2023/04/26 02:28:10;;;;;;;5.22;1.90;;;4.50;99.90;;;;;;5051211;28;20043;-63
2023/04/26 02:30:36;;;;;;;5.72;1.92;;;4.50;99.90;;;;;;5050501;28;20041;-63
2023/04/26 02:33:01;;;;;;;5.43;2.53;;;4.50;99.90;;;;;;5050212;28;20067;-63
2023/04/26 02:35:27;;;;;;;8.38;2.28;;;4.60;99.90;;;;;;5050198;28;20032;-63
2023/04/26 02:37:53;;;;;;;7.50;1.88;;;4.60;99.90;;;;;;5050917;28;20071;-63
2023/04/26 02:40:19;;;;;;;5.90;2.30;;;4.60;99.90;;;;;;5051121;28;20140;-63
2023/04/26 02:42:44;;;;;;;8.13;1.67;;;4.70;99.90;;;;;;5050756;28;20560;-63
2023/04/26 02:45:10;;;;;;;7.50;2.38;;;4.80;99.90;;;;;;5050786;28;20072;-63
2023/04/26 02:47:37;;;;;;;7.90;2.30;;;4.80;99.90;;;;;;5049535;28;20049;-63
2023/04/26 02:50:07;;;;;;;7.05;1.48;;;4.80;99.90;;;;;;5050843;28;20055;-63
2023/04/26 02:52:36;;;;;;;6.90;1.63;;;4.90;99.90;;;;;;5051193;28;20041;-63
2023/04/26 02:55:03;;;;;;;9.18;1.95;;;4.90;99.90;;;;;;5050909;28;20033;-63
2023/04/26 02:57:30;;;;;;;5.65;1.33;;;5.00;99.90;;;;;;5055717;28;20059;-63
2023/04/26 02:59:56;;;;;;;6.97;1.70;;;5.00;99.90;;;;;;5058242;28;20037;-63
2023/04/26 03:02:22;;;;;;;9.07;3.70;;;5.00;99.90;;;;;;5056693;28;20041;-63
2023/04/26 03:04:47;;;;;;;4.40;1.52;;;5.00;99.90;;;;;;5057311;28;20037;-63
2023/04/26 03:07:13;;;;;;;4.18;1.77;;;5.00;99.90;;;;;;5056252;28;20066;-63
2023/04/26 03:09:39;;;;;;;5.65;1.55;;;4.90;99.90;;;;;;5056393;28;20052;-63
2023/04/26 03:12:08;;;;;;;5.65;1.95;;;4.90;99.90;;;;;;5058773;28;20090;-63
2023/04/26 03:14:35;;;;;;;5.22;1.65;;;4.90;99.90;;;;;;5055756;28;20413;-63
2023/04/26 03:17:01;;;;;;;5.78;1.70;;;4.90;99.90;;;;;;5058418;28;20044;-63
2023/04/26 03:19:27;;;;;;;4.28;1.70;;;4.90;99.90;;;;;;5056347;28;20094;-63
2023/04/26 03:21:53;;;;;;;6.90;1.90;;;4.90;99.90;;;;;;5056227;28;20029;-63
2023/04/26 03:24:19;;;;;;;9.07;2.40;;;4.90;99.90;;;;;;5058024;28;20454;-63
2023/04/26 03:26:45;;;;;;;5.57;1.70;;;4.80;99.90;;;;;;5058355;28;20167;-63
2023/04/26 03:29:11;;;;;;;7.68;2.60;;;4.90;99.90;;;;;;5056389;28;20410;-63
2023/04/26 03:31:37;;;;;;;6.18;1.63;;;4.80;99.90;;;;;;5058023;28;20489;-63
2023/04/26 03:34:03;;;;;;;6.18;1.63;;;4.90;99.90;;;;;;5058208;28;20040;-63
2023/04/26 03:36:29;;;;;;;7.07;1.60;;;4.80;99.90;;;;;;5056736;28;20039;-63
2023/04/26 03:38:55;;;;;;;5.97;1.88;;;4.80;99.90;;;;;;5058249;28;20037;-63
2023/04/26 03:41:21;;;;;;;6.88;1.80;;;4.70;99.90;;;;;;5056705;28;20379;-63
2023/04/26 03:43:47;;;;;;;6.32;1.85;;;4.70;99.90;;;;;;5056276;28;20094;-63
2023/04/26 03:46:13;;;;;;;4.50;1.45;;;4.60;99.90;;;;;;5056859;28;20037;-63
2023/04/26 03:48:39;;;;;;;7.63;1.83;;;4.60;99.90;;;;;;5056218;28;20037;-63
2023/04/26 03:51:05;;;;;;;5.97;1.80;;;4.60;99.90;;;;;;5056312;28;20052;-63
2023/04/26 03:53:31;;;;;;;6.57;2.97;;;4.60;99.90;;;;;;5056485;28;20413;-63
2023/04/26 03:55:57;;;;;;;4.68;1.52;;;4.60;99.90;;;;;;5058123;28;20044;-63
2023/04/26 03:58:24;;;;;;;5.40;1.90;;;4.50;99.90;;;;;;5055440;28;20033;-63
2023/04/26 04:00:50;;;;;;;7.45;1.83;;;4.50;99.90;;;;;;5056990;28;20049;-63
2023/04/26 04:03:16;;;;;;;5.63;1.50;;;4.50;99.90;;;;;;5056996;28;20041;-63
2023/04/26 04:05:42;;;;;;;4.82;1.50;;;4.50;99.90;;;;;;5057542;28;20049;-63
2023/04/26 04:08:08;;;;;;;8.40;2.00;;;4.50;99.90;;;;;;5054598;28;20037;-63
2023/04/26 04:10:35;;;;;;;6.22;1.80;;;4.50;99.90;;;;;;5052110;28;20109;-63
2023/04/26 04:13:01;;;;;;;9.40;2.25;;;4.50;99.90;;;;;;5053557;28;20041;-63
2023/04/26 04:15:27;;;;;;;8.95;1.80;;;4.50;99.90;;;;;;5054123;28;20048;-63
2023/04/26 04:17:52;;;;;;;5.10;1.52;;;4.50;99.90;;;;;;5069429;28;20501;-63
2023/04/26 04:20:19;;;;;;;5.32;2.08;;;4.40;99.90;;;;;;5054295;28;20179;-63
2023/04/26 04:22:44;;;;;;;7.97;1.80;;;4.40;99.90;;;;;;5053226;28;20051;-63
2023/04/26 04:25:10;;;;;;;5.43;1.60;;;4.30;99.90;;;;;;5052561;28;20033;-63
2023/04/26 04:27:37;;;;;;;7.97;1.70;;;4.40;99.90;;;;;;5053774;28;20049;-63
2023/04/26 04:30:06;;;;;;;3.88;1.45;;;4.30;99.90;;;;;;5053633;28;20544;-63
2023/04/26 04:32:32;;;;;;;7.45;1.65;;;4.30;99.90;;;;;;5051851;28;20044;-63
2023/04/26 04:34:58;;;;;;;5.63;1.92;;;4.30;99.90;;;;;;5036519;28;20033;-63
2023/04/26 04:37:24;;;;;;;8.20;2.60;;;4.30;99.90;;;;;;5052053;28;20102;-63
2023/04/26 04:39:54;;;;;;;5.43;1.75;;;4.20;99.90;;;;;;5052313;28;20045;-63
2023/04/26 04:42:20;;;;;;;6.13;2.22;;;4.20;99.90;;;;;;5052620;28;20581;-63
2023/04/26 04:44:46;;;;;;;7.85;1.60;;;4.20;99.90;;;;;;5053200;28;20120;-63
2023/04/26 04:47:12;;;;;;;11.23;2.75;;;4.30;99.90;;;;;;5052055;28;20040;-63
2023/04/26 04:49:38;;;;;;;6.78;2.30;;;4.30;99.90;;;;;;5052451;28;20087;-63
2023/04/26 04:52:05;;;;;;;6.15;3.17;;;4.30;99.90;;;;;;5053121;28;20053;-63
2023/04/26 04:54:31;;;;;;;6.47;1.70;;;4.40;99.90;;;;;;5051435;28;20077;-64
2023/04/26 04:56:57;;;;;;;13.25;2.80;;;4.30;99.90;;;;;;5052581;28;20068;-64
2023/04/26 04:59:23;;;;;;;8.32;2.28;;;4.30;99.90;;;;;;5053098;28;20033;-64
2023/04/26 05:01:49;;;;;;;7.40;2.50;;;4.40;99.90;;;;;;5051487;28;20119;-64
2023/04/26 05:04:15;;;;;;;6.53;2.58;;;4.40;99.90;;;;;;5052566;28;20060;-64
2023/04/26 05:06:41;;;;;;;8.98;2.50;;;4.40;99.90;;;;;;5051460;28;20049;-64
2023/04/26 05:09:08;;;;;;;11.48;2.83;;;4.30;99.90;;;;;;5053652;28;20053;-64
2023/04/26 05:11:34;;;;;;;9.82;2.55;;;4.40;99.90;;;;;;5051935;28;20136;-64
2023/04/26 05:14:00;;;;;;;11.02;2.67;;;4.40;99.90;;;;;;5052857;28;20591;-64
2023/04/26 05:16:26;;;;;;;7.03;2.40;;;4.40;99.90;;;;;;5035136;28;20075;-64
2023/04/26 05:18:51;;;;;;;8.35;2.17;;;4.50;99.90;;;;;;5052320;28;20068;-64
2023/04/26 05:21:17;;;;;;;7.40;2.40;;;4.50;99.90;;;;;;5051012;28;20109;-64
2023/04/26 05:23:43;;;;;;;7.43;2.50;;;4.50;99.90;;;;;;5051696;28;20037;-64
2023/04/26 05:26:14;;;;;;;7.70;2.88;;;4.50;99.90;;;;;;5052249;28;20044;-64
2023/04/26 05:28:40;;;;;;;4.93;2.30;;;4.60;99.90;;;;;;5052383;28;20112;-64
2023/04/26 05:31:07;;;;;;;6.72;2.70;;;4.60;99.90;;;;;;5053075;28;20056;-64
2023/04/26 05:33:32;;;;;;;8.25;2.30;;;4.70;99.90;;;;;;5051378;28;20098;-64
2023/04/26 05:35:58;;;;;;;6.20;2.30;;;4.70;99.90;;;;;;5051440;28;20126;-64
2023/04/26 05:38:24;;;;;;;8.90;2.65;;;4.80;99.90;;;;;;5051364;28;20119;-64
2023/04/26 05:40:50;;;;;;;9.38;2.30;;;4.80;99.90;;;;;;5051792;28;20044;-64
2023/04/26 05:43:16;;;;;;;9.38;2.88;;;4.80;99.90;;;;;;5051798;28;20409;-64
2023/04/26 05:46:00;;;;;;;6.20;2.38;;;4.90;99.90;;;;;;5051675;28;20048;-64
2023/04/26 05:48:26;;;;;;;5.90;2.03;;;4.90;99.90;;;;;;5034924;28;20059;-64
2023/04/26 05:50:52;;;;;;;5.32;1.90;;;4.90;99.90;;;;;;5034770;28;20037;-64
2023/04/26 05:53:19;;;;;;;5.68;2.22;;;5.00;99.90;;;;;;5050714;28;20044;-64
2023/04/26 05:55:45;;;;;;;7.68;2.33;;;5.00;99.90;;;;;;5050915;28;20076;-64
2023/04/26 05:58:11;;;;;;;5.03;2.15;;;5.00;99.90;;;;;;5035251;28;20554;-64
2023/04/26 06:00:37;;;;;;;6.47;2.20;;;5.10;99.90;;;;;;5050946;28;20090;-64
2023/04/26 06:03:03;;;;;;;11.73;2.92;;;5.30;99.90;;;;;;5049751;28;20043;-64
2023/04/26 06:05:34;;;;;;;9.27;2.50;;;5.40;99.90;;;;;;5051582;28;20537;-64
2023/04/26 06:08:00;;;;;;;8.25;2.67;;;5.60;99.90;;;;;;5050114;28;20045;-64
2023/04/26 06:10:26;;;;;;;5.72;2.70;;;5.70;99.90;;;;;;5049986;28;20114;-64
2023/04/26 06:12:52;;;;;;;6.18;2.65;;;5.80;99.90;;;;;;5051114;28;20535;-64
2023/04/26 06:15:17;;;;;;;10.63;2.78;;;5.80;99.90;;;;;;5052216;28;20114;-64
2023/04/26 06:17:43;;;;;;;6.32;2.65;;;5.80;99.90;;;;;;5033525;28;20219;-64
2023/04/26 06:20:09;;;;;;;7.68;2.42;;;5.90;99.90;;;;;;5051446;28;20058;-64
2023/04/26 06:22:36;;;;;;;6.20;2.08;;;6.00;99.90;;;;;;5051724;28;20047;-64
2023/04/26 06:25:03;;;;;;;5.75;2.33;;;6.10;99.90;;;;;;5050102;28;20033;-64
2023/04/26 06:27:29;;;;;;;7.40;2.22;;;6.20;99.90;;;;;;5045312;28;20041;-64
2023/04/26 06:29:55;;;;;;;5.40;2.17;;;6.30;99.90;;;;;;5040744;28;20040;-64
2023/04/26 06:32:21;;;;;;;5.43;1.55;;;6.40;99.90;;;;;;5047861;28;20033;-64
2023/04/26 06:34:46;;;;;;;5.03;2.00;;;6.30;99.90;;;;;;5052298;28;20489;-64
2023/04/26 06:37:12;;;;;;;5.13;1.75;;;6.20;99.90;;;;;;5033831;28;20037;-64
2023/04/26 06:39:37;;;;;;;4.35;1.80;;;6.10;99.90;;;;;;5045836;28;20033;-64
2023/04/26 06:42:04;;;;;;;7.43;2.10;;;6.00;99.90;;;;;;5035703;28;20037;-64
2023/04/26 06:44:30;;;;;;;9.32;1.80;;;6.00;99.90;;;;;;5038706;28;20360;-64
2023/04/26 06:46:56;;;;;;;4.97;1.92;;;6.00;99.90;;;;;;5026579;28;20057;-64
2023/04/26 06:49:22;;;;;;;4.18;1.75;;;6.00;99.90;;;;;;5029086;28;20038;-64
2023/04/26 06:51:48;;;;;;;4.15;1.95;;;6.10;99.90;;;;;;5044878;28;20123;-64
2023/04/26 06:54:14;;;;;;;7.18;2.50;;;6.10;99.90;;;;;;5045977;28;20041;-64
2023/04/26 06:56:40;;;;;;;9.65;2.17;;;6.20;99.90;;;;;;5048905;28;20045;-64
2023/04/26 06:59:06;;;;;;;6.18;1.80;;;6.20;99.90;;;;;;5047687;28;20033;-64
2023/04/26 07:01:34;;;;;;;6.63;2.33;;;6.20;99.90;;;;;;5048390;28;20052;-64
2023/04/26 07:04:02;;;;;;;6.10;2.28;;;6.20;99.90;;;;;;5049105;28;20067;-64
2023/04/26 07:06:28;;;;;;;7.35;2.25;;;6.30;99.90;;;;;;5046328;28;20071;-64
2023/04/26 07:08:54;;;;;;;9.30;2.47;;;6.40;99.90;;;;;;5064152;28;20061;-64
2023/04/26 07:11:20;;;;;;;8.52;2.70;;;6.50;99.90;;;;;;5029530;28;20044;-64
2023/04/26 07:13:45;;;;;;;9.98;2.80;;;6.60;99.90;;;;;;5046459;28;20501;-64
2023/04/26 07:16:11;;;;;;;7.47;2.45;;;6.70;99.90;;;;;;5047547;28;20449;-64
2023/04/26 07:18:40;;;;;;;5.03;1.90;;;6.80;99.90;;;;;;5029777;28;20490;-64
2023/04/26 07:21:06;;;;;;;6.55;2.17;;;7.00;99.90;;;;;;5045960;28;20037;-64
2023/04/26 07:23:32;;;;;;;9.65;3.17;;;7.20;99.90;;;;;;5047434;28;20051;-64
2023/04/26 07:25:58;;;;;;;5.82;2.10;;;7.40;99.90;;;;;;5062118;28;20079;-65
2023/04/26 07:28:23;;;;;;;8.77;2.30;;;7.60;99.90;;;;;;5039947;28;20053;-65
2023/04/26 07:30:49;;;;;;;8.73;3.03;;;7.70;99.90;;;;;;5062685;28;20531;-65
2023/04/26 07:33:15;;;;;;;6.93;2.38;;;7.70;99.90;;;;;;5045680;28;20041;-65
2023/04/26 07:35:42;;;;;;;9.30;2.10;;;7.80;99.90;;;;;;5029141;28;20040;-64
2023/04/26 07:38:09;;;;;;;7.10;2.28;;;7.80;99.90;;;;;;5048537;28;20090;-64
2023/04/26 07:40:35;;;;;;;5.93;1.90;;;7.90;99.90;;;;;;5046590;28;20045;-64
2023/04/26 07:43:01;;;;;;;7.40;2.30;;;8.00;99.90;;;;;;5047295;28;20417;-64
2023/04/26 07:45:27;;;;;;;6.90;2.70;;;8.20;99.90;;;;;;5051017;28;20053;-64
2023/04/26 07:47:53;;;;;;;8.70;2.47;;;8.10;99.90;;;;;;5032969;28;20131;-64
2023/04/26 07:50:19;;;;;;;9.20;2.30;;;8.00;99.90;;;;;;5066385;28;20436;-64
2023/04/26 07:52:45;;;;;;;8.48;2.60;;;7.80;99.90;;;;;;5050156;28;20053;-63
2023/04/26 07:55:11;;;;;;;9.63;2.28;;;7.70;99.90;;;;;;5050833;28;20069;-64
2023/04/26 07:57:37;;;;;;;6.93;2.22;;;7.80;99.90;;;;;;5049140;28;20445;-63
2023/04/26 08:00:09;;;;;;;8.38;2.58;;;7.80;99.90;;;;;;5051118;28;20121;-64
2023/04/26 08:02:35;;;;;;;4.30;1.63;;;7.70;99.90;;;;;;5066690;28;20041;-64
2023/04/26 08:05:00;;;;;;;6.97;1.75;;;7.70;99.90;;;;;;5050371;28;20095;-64
2023/04/26 08:07:26;;;;;;;6.18;1.50;;;7.70;99.90;;;;;;5050045;28;20044;-63
2023/04/26 08:09:52;;;;;;;8.23;1.95;;;7.60;99.90;;;;;;5049213;28;20132;-63
2023/04/26 08:12:18;;;;;;;8.35;3.30;;;7.70;99.90;;;;;;5050104;28;20028;-63
2023/04/26 08:14:43;;;;;;;6.72;3.28;;;7.70;99.90;;;;;;5049806;28;20045;-63
2023/04/26 08:17:09;;;;;;;7.93;2.28;;;7.70;99.90;;;;;;5049520;28;20032;-64
2023/04/26 08:19:35;;;;;;;6.68;2.20;;;7.80;99.90;;;;;;5051096;28;20041;-64
2023/04/26 08:22:01;;;;;;;10.48;2.50;;;7.70;99.90;;;;;;5051663;28;20040;-64
2023/04/26 08:24:27;;;;;;;7.80;2.40;;;7.70;99.90;;;;;;5049086;28;20053;-63
2023/04/26 08:26:54;;;;;;;8.45;2.30;;;7.70;99.90;;;;;;5033786;28;20037;-64
2023/04/26 08:29:20;;;;;;;7.93;2.65;;;7.80;99.90;;;;;;5049846;28;20032;-64
2023/04/26 08:31:45;;;;;;;10.80;2.20;;;7.70;99.90;;;;;;5044709;28;20051;-64
2023/04/26 08:34:12;;;;;;;9.27;2.63;;;7.70;99.90;;;;;;5050228;28;20171;-62
2023/04/26 08:36:40;;;;;;;8.05;2.60;;;7.80;99.90;;;;;;5050023;28;20056;-63
2023/04/26 08:39:07;;;;;;;4.40;1.85;;;7.80;99.90;;;;;;5050371;28;20048;-64
2023/04/26 08:41:36;;;;;;;7.72;2.40;;;7.80;99.90;;;;;;5049926;28;20048;-63
2023/04/26 08:44:04;;;;;;;7.45;2.67;;;7.80;99.90;;;;;;5052164;28;20048;-63
2023/04/26 08:46:49;;;;;;;9.07;2.35;;;7.80;99.90;;;;;;5046208;28;20517;-63
2023/04/26 08:49:26;;;;;;;8.13;2.17;;;7.90;99.90;;;;;;5066513;28;20044;-63
2023/04/26 08:51:53;;;;;;;6.95;1.95;;;8.00;99.90;;;;;;5049398;28;20044;-63
2023/04/26 08:54:20;;;;;;;6.53;2.38;;;8.00;99.90;;;;;;5032378;28;20064;-64
2023/04/26 08:56:46;;;;;;;8.75;2.50;;;8.10;99.90;;;;;;5050001;28;20056;-63
2023/04/26 08:59:12;;;;;;;5.78;2.45;;;8.20;99.90;;;;;;5034633;28;20029;-63
2023/04/26 09:01:40;;;;;;;6.13;2.45;;;8.20;99.90;;;;;;5051272;28;20494;-63
2023/04/26 09:04:06;;;;;;;8.73;3.28;;;8.30;99.90;;;;;;5051732;28;20064;-63
2023/04/26 09:06:32;;;;;;;9.10;2.30;;;8.40;99.90;;;;;;5052741;28;20052;-64
2023/04/26 09:09:03;;;;;;;10.02;3.13;;;8.50;99.90;;;;;;5053770;28;20401;-63
2023/04/26 09:11:30;;;;;;;5.93;2.40;;;8.50;99.90;;;;;;5053447;28;20053;-63
2023/04/26 09:13:56;;;;;;;5.88;2.22;;;8.40;99.90;;;;;;5035083;28;20049;-63
2023/04/26 09:16:36;;;;;;;7.47;3.00;;;8.50;99.90;;;;;;5052560;28;20037;-64
2023/04/26 09:19:02;;;;;;;10.38;1.90;;;8.50;99.90;;;;;;5038308;28;20039;-64
2023/04/26 09:21:28;;;;;;;6.78;1.90;;;8.50;99.90;;;;;;5052243;28;20033;-63
2023/04/26 09:24:00;;;;;;;7.50;2.40;;;8.50;99.90;;;;;;5052493;28;20383;-63
2023/04/26 09:26:26;;;;;;;4.13;1.50;;;8.40;99.90;;;;;;5034548;28;20044;-63
2023/04/26 09:29:15;;;;;;;6.95;1.70;;;8.40;99.90;;;;;;5051477;28;20056;-64
2023/04/26 09:31:46;;;;;;;5.70;1.85;;;8.40;99.90;;;;;;5053075;28;20103;-64
2023/04/26 09:34:13;;;;;;;6.22;1.77;;;8.50;99.90;;;;;;5031478;28;20548;-63
2023/04/26 09:36:49;;;;;;;6.05;1.77;;;8.40;99.90;;;;;;5018719;28;20041;-63
2023/04/26 09:39:46;;;;;;;6.28;1.90;;;8.50;99.90;;;;;;5052874;28;20043;-63
2023/04/26 09:42:16;;;;;;;5.97;2.30;;;8.40;99.90;;;;;;5050505;28;20029;-63
2023/04/26 09:44:42;;;;;;;9.02;2.55;;;8.40;99.90;;;;;;5052945;28;20535;-63
2023/04/26 09:47:10;;;;;;;8.43;2.30;;;8.50;99.90;;;;;;5068613;28;20037;-63
2023/04/26 09:49:43;;;;;;;7.60;2.30;;;8.40;99.90;;;;;;5048517;28;20051;-63
2023/04/26 09:52:09;;;;;;;5.22;2.03;;;8.30;99.90;;;;;;5051764;28;20045;-63
2023/04/26 09:54:40;;;;;;;6.43;2.25;;;8.20;99.90;;;;;;5067672;28;20049;-63
2023/04/26 09:57:06;;;;;;;4.78;1.90;;;8.20;99.90;;;;;;5050592;28;20143;-63
2023/04/26 09:59:43;;;;;;;8.52;2.47;;;8.20;99.90;;;;;;5034308;28;20041;-63
2023/04/26 10:02:23;;;;;;;6.75;2.30;;;8.30;99.90;;;;;;5051967;28;20065;-63
2023/04/26 10:04:51;;;;;;;7.43;2.33;;;8.50;99.90;;;;;;5050875;28;20048;-63
2023/04/26 10:07:19;;;;;;;13.25;3.13;;;8.80;99.90;;;;;;5046345;28;20043;-64
2023/04/26 10:09:45;;;;;;;9.93;2.92;;;9.00;99.90;;;;;;5033626;28;20053;-63
2023/04/26 10:12:13;;;;;;;5.22;1.70;;;9.10;99.90;;;;;;5051601;28;20131;-63
2023/04/26 10:14:40;;;;;;;6.82;2.28;;;9.00;99.90;;;;;;5051712;28;20044;-63
2023/04/26 10:17:06;;;;;;;5.57;2.03;;;9.00;99.90;;;;;;5050514;28;20039;-64
2023/04/26 10:19:33;;;;;;;7.65;2.58;;;8.90;99.90;;;;;;5033175;28;20116;-63
2023/04/26 10:22:09;;;;;;;4.97;1.67;;;9.00;99.90;;;;;;5050306;28;20041;-63
2023/04/26 10:24:35;;;;;;;5.53;2.00;;;8.90;99.90;;;;;;5041026;28;20055;-63
2023/04/26 10:27:02;;;;;;;6.45;1.85;;;8.80;99.90;;;;;;5050130;28;20037;-63
2023/04/26 10:29:54;;;;;;;4.60;1.73;;;8.70;99.90;;;;;;5050116;28;20131;-63
2023/04/26 10:32:21;;;;;;;5.72;1.92;;;8.70;99.90;;;;;;5044345;28;20088;-63
2023/04/26 10:35:12;;;;;;;7.07;2.03;;;9.00;99.90;;;;;;5052449;28;20098;-63
2023/04/26 10:38:00;;;;;;;6.70;1.98;;;9.20;99.90;;;;;;5048278;28;20040;-63
2023/04/26 10:40:30;;;;;;;7.35;1.70;;;9.40;99.90;;;;;;5049819;28;20044;-64
2023/04/26 10:43:12;;;;;;;4.82;1.45;;;9.50;99.90;;;;;;5051293;28;20044;-65
2023/04/26 10:45:40;;;;;;;6.15;1.40;;;9.50;99.90;;;;;;5050030;28;20128;-65
2023/04/26 10:48:19;;;;;;;5.20;1.63;;;9.40;99.90;;;;;;5050407;28;20044;-65
2023/04/26 10:51:00;;;;;;;5.65;1.55;;;9.50;99.90;;;;;;5050868;28;20481;-62
2023/04/26 10:53:44;;;;;;;7.18;2.22;;;9.60;99.90;;;;;;5050304;28;20052;-65
2023/04/26 10:56:19;;;;;;;4.90;1.23;;;9.70;99.90;;;;;;5047115;28;20063;-66
2023/04/26 10:58:45;;;;;;;4.05;1.50;;;9.80;99.90;;;;;;5032472;28;20036;-64
2023/04/26 11:01:16;;;;;;;4.80;1.42;;;9.90;99.90;;;;;;5050905;28;20562;-64
2023/04/26 11:03:44;;;;;;;4.53;1.50;;;9.90;99.90;;;;;;5033903;28;20048;-64
2023/04/26 11:06:14;;;;;;;8.68;2.45;;;9.90;99.90;;;;;;5049874;28;20063;-64
2023/04/26 11:08:40;;;;;;;6.82;2.00;;;10.00;99.90;;;;;;5051379;28;20048;-64
2023/04/26 11:11:15;;;;;;;7.10;1.98;;;9.90;99.90;;;;;;5050663;28;20060;-64
2023/04/26 11:13:42;;;;;;;4.38;1.77;;;9.80;99.90;;;;;;5049876;28;20045;-64
2023/04/26 11:16:09;;;;;;;8.00;1.90;;;9.60;99.90;;;;;;5051881;28;20037;-64
2023/04/26 11:18:37;;;;;;;6.60;1.38;;;9.50;99.90;;;;;;5052431;28;20051;-65
2023/04/26 11:21:04;;;;;;;5.55;1.60;;;9.70;98.00;;;;;;5055134;28;20072;-64
2023/04/26 11:23:31;;;;;;;4.90;1.38;;;9.90;98.20;;;;;;5053819;28;20056;-65
2023/04/26 11:25:58;;;;;;;5.70;1.35;;;9.90;96.40;;;;;;5054913;28;20385;-65
2023/04/26 11:28:24;;;;;;;4.28;1.63;;;10.00;97.50;;;;;;5053273;28;20049;-65
2023/04/26 11:30:50;;;;;;;5.95;1.40;;;10.00;97.80;;;;;;5054560;28;20497;-65
2023/04/26 11:33:21;;;;;;;8.07;1.83;;;10.10;98.00;;;;;;5055315;28;20037;-65
2023/04/26 11:35:51;;;;;;;4.40;1.50;;;10.20;97.30;;;;;;5054297;28;20045;-65
2023/04/26 11:38:20;;;;;;;4.38;1.38;;;10.30;96.80;;;;;;5053978;28;20044;-64
2023/04/26 11:40:54;;;;;;;7.07;2.10;;;10.30;96.00;;;;;;5053780;28;20029;-64
2023/04/26 11:43:19;;;;;;;6.00;1.58;;;10.30;95.30;;;;;;5054131;28;20048;-64
2023/04/26 11:45:45;;;;;;;4.47;1.83;;;10.30;94.60;;;;;;5037836;28;20044;-64
2023/04/26 11:48:11;;;;;;;4.38;2.00;;;10.10;94.20;;;;;;5054618;28;20047;-63
2023/04/26 11:50:38;;;;;;;8.82;1.88;;;10.00;93.50;;;;;;5037133;28;20095;-63
2023/04/26 11:53:06;;;;;;;6.20;1.48;;;10.00;94.10;;;;;;5055188;28;20520;-63
2023/04/26 11:55:34;;;;;;;5.55;1.55;;;9.90;94.70;;;;;;5052878;28;20497;-63
2023/04/26 11:58:07;;;;;;;4.60;1.38;;;9.80;95.10;;;;;;5055329;28;20041;-63
2023/04/26 12:00:33;;;;;;;4.05;1.45;;;9.80;95.70;;;;;;5054681;28;20128;-63
2023/04/26 12:03:09;;;;;;;6.20;1.98;;;9.80;96.40;;;;;;5052879;28;20516;-63
2023/04/26 12:05:35;;;;;;;5.90;2.28;;;9.80;97.40;;;;;;5053414;28;20505;-63
2023/04/26 12:08:01;;;;;;;6.40;1.50;;;9.80;97.50;;;;;;5055228;28;20048;-63
2023/04/26 12:10:37;;;;;;;7.60;1.80;;;9.70;97.70;;;;;;5052117;28;20053;-63
2023/04/26 12:13:03;;;;;;;7.93;1.58;;;9.80;97.30;;;;;;5053713;28;20076;-63
2023/04/26 12:15:33;;;;;;;9.70;1.50;;;9.90;98.00;;;;;;5054245;28;20075;-63
2023/04/26 12:18:07;;;;;;;5.22;1.70;;;9.90;97.40;;;;;;5055098;28;20037;-63
2023/04/26 12:20:35;;;;;;;7.07;1.45;;;9.90;97.90;;;;;;5052982;28;20037;-63
2023/04/26 12:23:06;;;;;;;8.07;1.73;;;9.90;97.50;;;;;;5053218;28;20048;-63
2023/04/26 12:25:34;;;;;;;5.47;1.83;;;10.00;97.60;;;;;;5052771;28;20045;-63
2023/04/26 12:27:59;;;;;;;8.35;2.58;;;10.40;97.90;;;;;;5036797;28;20049;-63
2023/04/26 12:30:27;;;;;;;9.07;2.30;;;10.50;97.90;;;;;;5052531;28;20048;-63
2023/04/26 12:32:53;;;;;;;6.47;2.83;;;10.60;98.50;;;;;;5053322;28;20044;-63
2023/04/26 12:35:19;;;;;;;6.63;2.13;;;10.70;99.20;;;;;;5036426;28;20086;-63
2023/04/26 12:37:46;;;;;;;8.60;2.15;;;10.80;99.10;;;;;;5052356;28;20045;-63
2023/04/26 12:40:12;;;;;;;5.53;1.92;;;10.60;96.90;;;;;;5036585;28;20045;-63
2023/04/26 12:42:38;;;;;;;4.38;1.67;;;10.70;97.30;;;;;;5052530;28;20064;-63
2023/04/26 12:45:04;;;;;;;4.30;1.85;;;10.50;97.00;;;;;;5052273;28;20448;-63
2023/04/26 12:47:30;;;;;;;6.47;2.03;;;10.40;96.80;;;;;;5035821;28;20063;-63
2023/04/26 12:49:59;;;;;;;6.57;1.80;;;10.20;96.50;;;;;;5054327;28;20072;-63
2023/04/26 12:52:25;;;;;;;4.32;1.80;;;10.00;96.90;;;;;;5051693;28;20041;-63
2023/04/26 12:54:50;;;;;;;10.93;2.30;;;9.80;97.80;;;;;;5052830;28;20048;-63
2023/04/26 12:57:16;;;;;;;5.30;2.13;;;9.50;98.50;;;;;;5052506;28;20044;-63